OAKB/KBL METAR and TAF weather

Enter ICAO airport designator
Station Type Date Time Source
OAKB METAR 2020/04/04 10:50 UTC NOAA

OAKB 041050Z 07010KT 9999 FEW060 19/01 Q1018 RMK A3007 BLU BLU


Station Type Date Time Source
OAKB Decoded METAR 2020/04/04 10:50 UTC NOAA

Kabul Airport, Afghanistan (OAKB) 34-38N 069-12E
Apr 04, 2020 - 06:50 AM EDT / 2020.04.04 1050 UTC
Wind: from the ENE (070 degrees) at 12 MPH (10 KT):0
Visibility: greater than 7 mile(s):0
Sky conditions: mostly clear
Temperature: 66 F (19 C)
Dew Point: 33 F (1 C)
Relative Humidity: 29%
Pressure (altimeter): 30.06 in. Hg (1018 hPa)
ob: OAKB 041050Z 07010KT 9999 FEW060 19/01 Q1018 RMK A3007 BLU BLU
cycle: 11

Station Type Date Time Source
OAKB TAF 2020/04/04 06:05 UTC NOAA

TAF OAKB 040505Z 0406/0506 VRB02KT CAVOK
BECMG 0408/0410 10010KT SCT050 PROB30
TEMPO 0410/0415 02010G20KT VCTS BKN050CB
BECMG 0415/0417 09012KT 9000 -SHRA SCT030 BKN050
TEMPO 0505/0506 03015G25KT VCTS SCT040CB

Example: see airport list